sensor_id;sensor_type;location;lat;lon;timestamp;temperature;humidity
64549;DHT22;49838;51.798;10.954;2022-08-01T00:02:25;26.10;33.80
64549;DHT22;49838;51.798;10.954;2022-08-01T00:04:53;26.10;33.80
64549;DHT22;49838;51.798;10.954;2022-08-01T00:07:20;26.10;33.90
64549;DHT22;49838;51.798;10.954;2022-08-01T00:09:48;26.00;33.80
64549;DHT22;49838;51.798;10.954;2022-08-01T00:12:15;26.10;33.80
64549;DHT22;49838;51.798;10.954;2022-08-01T00:14:42;26.10;33.80
64549;DHT22;49838;51.798;10.954;2022-08-01T00:17:10;26.10;33.70
64549;DHT22;49838;51.798;10.954;2022-08-01T00:19:38;26.20;33.70
64549;DHT22;49838;51.798;10.954;2022-08-01T00:22:06;26.20;33.70
64549;DHT22;49838;51.798;10.954;2022-08-01T00:24:33;26.20;33.70
64549;DHT22;49838;51.798;10.954;2022-08-01T00:27:00;26.20;33.70
64549;DHT22;49838;51.798;10.954;2022-08-01T00:29:27;26.20;33.70
64549;DHT22;49838;51.798;10.954;2022-08-01T00:31:55;26.30;33.70
64549;DHT22;49838;51.798;10.954;2022-08-01T00:34:22;26.30;33.60
64549;DHT22;49838;51.798;10.954;2022-08-01T00:36:51;26.30;33.60
64549;DHT22;49838;51.798;10.954;2022-08-01T00:39:18;26.40;33.60
64549;DHT22;49838;51.798;10.954;2022-08-01T00:41:45;26.40;33.60
64549;DHT22;49838;51.798;10.954;2022-08-01T00:44:12;26.40;33.70
64549;DHT22;49838;51.798;10.954;2022-08-01T00:46:40;26.40;33.60
64549;DHT22;49838;51.798;10.954;2022-08-01T00:49:07;26.40;33.60
64549;DHT22;49838;51.798;10.954;2022-08-01T00:51:34;26.40;33.70
64549;DHT22;49838;51.798;10.954;2022-08-01T00:54:03;26.50;33.80
64549;DHT22;49838;51.798;10.954;2022-08-01T00:56:30;26.40;33.70
64549;DHT22;49838;51.798;10.954;2022-08-01T00:58:58;26.50;33.80
64549;DHT22;49838;51.798;10.954;2022-08-01T01:01:25;26.50;33.80
64549;DHT22;49838;51.798;10.954;2022-08-01T01:03:52;26.50;33.80
64549;DHT22;49838;51.798;10.954;2022-08-01T01:06:25;26.50;33.80
64549;DHT22;49838;51.798;10.954;2022-08-01T01:09:01;26.50;33.80
64549;DHT22;49838;51.798;10.954;2022-08-01T01:11:38;26.50;33.80
64549;DHT22;49838;51.798;10.954;2022-08-01T01:14:13;26.50;33.90
64549;DHT22;49838;51.798;10.954;2022-08-01T01:16:48;26.50;33.90
64549;DHT22;49838;51.798;10.954;2022-08-01T01:19:18;26.50;33.90
64549;DHT22;49838;51.798;10.954;2022-08-01T01:24:45;26.50;34.00
64549;DHT22;49838;51.798;10.954;2022-08-01T01:27:24;26.40;33.90
64549;DHT22;49838;51.798;10.954;2022-08-01T01:30:04;26.40;34.00
64549;DHT22;49838;51.798;10.954;2022-08-01T01:32:33;26.30;34.10
64549;DHT22;49838;51.798;10.954;2022-08-01T01:35:05;26.20;34.10
64549;DHT22;49838;51.798;10.954;2022-08-01T01:37:37;26.20;34.30
64549;DHT22;49838;51.798;10.954;2022-08-01T01:40:06;26.10;34.40
64549;DHT22;49838;51.798;10.954;2022-08-01T01:42:36;26.10;34.60
64549;DHT22;49838;51.798;10.954;2022-08-01T01:45:07;26.10;34.70
64549;DHT22;49838;51.798;10.954;2022-08-01T01:47:36;26.10;34.70
64549;DHT22;49838;51.798;10.954;2022-08-01T01:50:05;26.10;34.80
64549;DHT22;49838;51.798;10.954;2022-08-01T01:52:35;26.10;34.80
64549;DHT22;49838;51.798;10.954;2022-08-01T01:55:05;26.10;34.80
64549;DHT22;49838;51.798;10.954;2022-08-01T01:57:35;26.10;34.70
64549;DHT22;49838;51.798;10.954;2022-08-01T02:00:04;26.20;34.80
64549;DHT22;49838;51.798;10.954;2022-08-01T02:02:35;26.20;34.80
64549;DHT22;49838;51.798;10.954;2022-08-01T02:05:04;26.20;34.80
64549;DHT22;49838;51.798;10.954;2022-08-01T02:07:32;26.20;34.70
64549;DHT22;49838;51.798;10.954;2022-08-01T02:10:01;26.30;34.80
64549;DHT22;49838;51.798;10.954;2022-08-01T02:12:30;26.20;34.60
64549;DHT22;49838;51.798;10.954;2022-08-01T02:14:59;26.30;34.70
64549;DHT22;49838;51.798;10.954;2022-08-01T02:17:30;26.30;34.70
64549;DHT22;49838;51.798;10.954;2022-08-01T02:19:58;26.30;34.70
64549;DHT22;49838;51.798;10.954;2022-08-01T02:22:27;26.30;35.30
64549;DHT22;49838;51.798;10.954;2022-08-01T02:24:59;26.20;34.60
64549;DHT22;49838;51.798;10.954;2022-08-01T02:27:33;26.20;34.80
64549;DHT22;49838;51.798;10.954;2022-08-01T02:30:04;26.20;34.90
64549;DHT22;49838;51.798;10.954;2022-08-01T02:32:36;26.10;34.90
64549;DHT22;49838;51.798;10.954;2022-08-01T02:35:07;26.10;35.00
64549;DHT22;49838;51.798;10.954;2022-08-01T02:37:38;26.10;35.00
64549;DHT22;49838;51.798;10.954;2022-08-01T02:40:08;26.10;35.00
64549;DHT22;49838;51.798;10.954;2022-08-01T02:42:39;26.10;35.00
64549;DHT22;49838;51.798;10.954;2022-08-01T02:45:12;26.20;35.20
64549;DHT22;49838;51.798;10.954;2022-08-01T02:47:41;26.20;35.00
64549;DHT22;49838;51.798;10.954;2022-08-01T02:50:10;26.20;35.00
64549;DHT22;49838;51.798;10.954;2022-08-01T02:52:42;26.20;35.30
64549;DHT22;49838;51.798;10.954;2022-08-01T02:55:12;26.10;35.20
64549;DHT22;49838;51.798;10.954;2022-08-01T02:57:40;26.10;35.20
64549;DHT22;49838;51.798;10.954;2022-08-01T03:00:10;26.10;35.30
64549;DHT22;49838;51.798;10.954;2022-08-01T03:02:38;26.10;35.50
64549;DHT22;49838;51.798;10.954;2022-08-01T03:05:08;26.10;35.50
64549;DHT22;49838;51.798;10.954;2022-08-01T03:07:38;26.10;35.50
64549;DHT22;49838;51.798;10.954;2022-08-01T03:10:07;26.10;35.60
64549;DHT22;49838;51.798;10.954;2022-08-01T03:12:36;26.10;35.60
64549;DHT22;49838;51.798;10.954;2022-08-01T03:15:06;26.10;35.90
64549;DHT22;49838;51.798;10.954;2022-08-01T03:17:37;26.10;36.10
64549;DHT22;49838;51.798;10.954;2022-08-01T03:20:10;26.10;36.20
64549;DHT22;49838;51.798;10.954;2022-08-01T03:22:40;26.10;36.50
64549;DHT22;49838;51.798;10.954;2022-08-01T03:25:10;26.10;36.00
64549;DHT22;49838;51.798;10.954;2022-08-01T03:27:40;26.10;36.70
64549;DHT22;49838;51.798;10.954;2022-08-01T03:30:10;26.10;36.60
64549;DHT22;49838;51.798;10.954;2022-08-01T03:32:39;26.10;37.10
64549;DHT22;49838;51.798;10.954;2022-08-01T03:35:07;26.10;37.00
64549;DHT22;49838;51.798;10.954;2022-08-01T03:37:36;26.10;36.90
64549;DHT22;49838;51.798;10.954;2022-08-01T03:40:09;26.10;36.90
64549;DHT22;49838;51.798;10.954;2022-08-01T03:42:41;26.10;36.80
64549;DHT22;49838;51.798;10.954;2022-08-01T03:45:15;26.20;36.80
64549;DHT22;49838;51.798;10.954;2022-08-01T03:47:47;26.20;36.70
64549;DHT22;49838;51.798;10.954;2022-08-01T03:50:18;26.20;36.70
64549;DHT22;49838;51.798;10.954;2022-08-01T03:52:49;26.20;36.50
64549;DHT22;49838;51.798;10.954;2022-08-01T03:55:18;26.30;36.50
64549;DHT22;49838;51.798;10.954;2022-08-01T03:57:48;26.30;36.40
64549;DHT22;49838;51.798;10.954;2022-08-01T04:00:17;26.30;36.10
64549;DHT22;49838;51.798;10.954;2022-08-01T04:02:45;26.40;36.30
64549;DHT22;49838;51.798;10.954;2022-08-01T04:05:12;26.40;36.30
64549;DHT22;49838;51.798;10.954;2022-08-01T04:07:40;26.40;36.40
64549;DHT22;49838;51.798;10.954;2022-08-01T04:10:14;26.40;36.30
64549;DHT22;49838;51.798;10.954;2022-08-01T04:12:41;26.50;36.40
64549;DHT22;49838;51.798;10.954;2022-08-01T04:15:08;26.50;36.40
64549;DHT22;49838;51.798;10.954;2022-08-01T04:17:36;26.50;36.50
64549;DHT22;49838;51.798;10.954;2022-08-01T04:20:03;26.50;36.50
64549;DHT22;49838;51.798;10.954;2022-08-01T04:22:31;26.50;36.50
64549;DHT22;49838;51.798;10.954;2022-08-01T04:24:58;26.50;36.40
64549;DHT22;49838;51.798;10.954;2022-08-01T04:27:31;26.60;36.40
64549;DHT22;49838;51.798;10.954;2022-08-01T04:30:03;26.60;36.40
64549;DHT22;49838;51.798;10.954;2022-08-01T04:32:33;26.60;36.80
64549;DHT22;49838;51.798;10.954;2022-08-01T04:35:02;26.60;36.30
64549;DHT22;49838;51.798;10.954;2022-08-01T04:37:33;26.70;36.30
64549;DHT22;49838;51.798;10.954;2022-08-01T04:40:04;26.70;36.20
64549;DHT22;49838;51.798;10.954;2022-08-01T04:42:33;26.70;36.20
64549;DHT22;49838;51.798;10.954;2022-08-01T04:45:01;26.70;36.10
64549;DHT22;49838;51.798;10.954;2022-08-01T04:47:28;26.70;36.00
64549;DHT22;49838;51.798;10.954;2022-08-01T04:49:57;26.80;36.10
64549;DHT22;49838;51.798;10.954;2022-08-01T04:52:32;26.80;36.00
64549;DHT22;49838;51.798;10.954;2022-08-01T04:55:00;26.80;36.10
64549;DHT22;49838;51.798;10.954;2022-08-01T04:57:27;26.80;36.20
64549;DHT22;49838;51.798;10.954;2022-08-01T04:59:56;26.90;36.10
64549;DHT22;49838;51.798;10.954;2022-08-01T05:02:23;26.90;36.10
64549;DHT22;49838;51.798;10.954;2022-08-01T05:04:53;27.00;36.20
64549;DHT22;49838;51.798;10.954;2022-08-01T05:07:21;27.00;36.20
64549;DHT22;49838;51.798;10.954;2022-08-01T05:09:49;27.00;36.30
64549;DHT22;49838;51.798;10.954;2022-08-01T05:12:16;27.00;36.30
64549;DHT22;49838;51.798;10.954;2022-08-01T05:14:43;27.00;36.20
64549;DHT22;49838;51.798;10.954;2022-08-01T05:17:13;27.10;36.20
64549;DHT22;49838;51.798;10.954;2022-08-01T05:19:40;27.30;36.10
64549;DHT22;49838;51.798;10.954;2022-08-01T05:22:08;27.30;36.00
64549;DHT22;49838;51.798;10.954;2022-08-01T05:24:37;27.40;35.90
64549;DHT22;49838;51.798;10.954;2022-08-01T05:27:05;27.50;35.90
64549;DHT22;49838;51.798;10.954;2022-08-01T05:29:33;27.50;35.90
64549;DHT22;49838;51.798;10.954;2022-08-01T05:32:01;27.50;36.10
64549;DHT22;49838;51.798;10.954;2022-08-01T05:34:30;27.50;36.20
64549;DHT22;49838;51.798;10.954;2022-08-01T05:36:57;27.40;36.30
64549;DHT22;49838;51.798;10.954;2022-08-01T05:39:24;27.30;36.70
64549;DHT22;49838;51.798;10.954;2022-08-01T05:41:51;27.30;36.70
64549;DHT22;49838;51.798;10.954;2022-08-01T05:44:19;27.30;36.70
64549;DHT22;49838;51.798;10.954;2022-08-01T05:46:46;27.40;36.70
64549;DHT22;49838;51.798;10.954;2022-08-01T05:49:13;27.60;36.60
64549;DHT22;49838;51.798;10.954;2022-08-01T05:51:42;27.80;36.50
64549;DHT22;49838;51.798;10.954;2022-08-01T05:54:09;28.00;37.20
64549;DHT22;49838;51.798;10.954;2022-08-01T05:56:36;28.00;36.70
64549;DHT22;49838;51.798;10.954;2022-08-01T05:59:04;28.10;37.00
64549;DHT22;49838;51.798;10.954;2022-08-01T06:01:31;28.00;36.90
64549;DHT22;49838;51.798;10.954;2022-08-01T06:03:58;27.90;37.00
64549;DHT22;49838;51.798;10.954;2022-08-01T06:06:25;27.80;37.30
64549;DHT22;49838;51.798;10.954;2022-08-01T06:08:54;27.70;38.00
64549;DHT22;49838;51.798;10.954;2022-08-01T06:11:21;27.50;37.90
64549;DHT22;49838;51.798;10.954;2022-08-01T06:13:49;27.40;38.10
64549;DHT22;49838;51.798;10.954;2022-08-01T06:16:16;27.40;38.00
64549;DHT22;49838;51.798;10.954;2022-08-01T06:18:43;27.40;38.40
64549;DHT22;49838;51.798;10.954;2022-08-01T06:21:10;27.40;38.50
64549;DHT22;49838;51.798;10.954;2022-08-01T06:23:37;27.40;38.60
64549;DHT22;49838;51.798;10.954;2022-08-01T06:26:08;27.40;38.70
64549;DHT22;49838;51.798;10.954;2022-08-01T06:28:36;27.30;38.80
64549;DHT22;49838;51.798;10.954;2022-08-01T06:31:04;27.20;38.90
64549;DHT22;49838;51.798;10.954;2022-08-01T06:33:31;27.20;39.20
64549;DHT22;49838;51.798;10.954;2022-08-01T06:35:59;27.20;39.10
64549;DHT22;49838;51.798;10.954;2022-08-01T06:38:26;27.10;39.50
64549;DHT22;49838;51.798;10.954;2022-08-01T06:40:54;27.00;39.30
64549;DHT22;49838;51.798;10.954;2022-08-01T06:43:22;27.10;39.10
64549;DHT22;49838;51.798;10.954;2022-08-01T06:45:50;27.00;39.90
64549;DHT22;49838;51.798;10.954;2022-08-01T06:48:17;26.90;40.20
64549;DHT22;49838;51.798;10.954;2022-08-01T06:50:44;26.80;39.90
64549;DHT22;49838;51.798;10.954;2022-08-01T06:53:11;26.70;40.00
64549;DHT22;49838;51.798;10.954;2022-08-01T06:55:39;26.60;40.10
64549;DHT22;49838;51.798;10.954;2022-08-01T06:58:06;26.70;40.20
64549;DHT22;49838;51.798;10.954;2022-08-01T07:00:34;26.80;40.10
64549;DHT22;49838;51.798;10.954;2022-08-01T07:03:02;26.90;39.80
64549;DHT22;49838;51.798;10.954;2022-08-01T07:05:29;27.00;40.30
64549;DHT22;49838;51.798;10.954;2022-08-01T07:07:56;27.10;39.70
64549;DHT22;49838;51.798;10.954;2022-08-01T07:10:24;27.30;39.90
64549;DHT22;49838;51.798;10.954;2022-08-01T07:12:51;27.50;40.00
64549;DHT22;49838;51.798;10.954;2022-08-01T07:15:18;27.60;39.80
64549;DHT22;49838;51.798;10.954;2022-08-01T07:17:53;27.80;40.00
64549;DHT22;49838;51.798;10.954;2022-08-01T07:20:20;28.10;40.00
64549;DHT22;49838;51.798;10.954;2022-08-01T07:22:47;28.50;40.10
64549;DHT22;49838;51.798;10.954;2022-08-01T07:25:15;29.10;40.30
64549;DHT22;49838;51.798;10.954;2022-08-01T07:27:42;29.40;40.20
64549;DHT22;49838;51.798;10.954;2022-08-01T07:30:10;29.60;40.20
64549;DHT22;49838;51.798;10.954;2022-08-01T07:32:38;29.70;40.10
64549;DHT22;49838;51.798;10.954;2022-08-01T07:35:07;29.80;40.10
64549;DHT22;49838;51.798;10.954;2022-08-01T07:37:35;30.00;40.00
64549;DHT22;49838;51.798;10.954;2022-08-01T07:40:02;30.10;39.80
64549;DHT22;49838;51.798;10.954;2022-08-01T07:42:31;30.20;39.70
64549;DHT22;49838;51.798;10.954;2022-08-01T07:44:58;30.20;39.50
64549;DHT22;49838;51.798;10.954;2022-08-01T07:47:25;30.00;39.50
64549;DHT22;49838;51.798;10.954;2022-08-01T07:49:58;30.00;39.50
64549;DHT22;49838;51.798;10.954;2022-08-01T07:52:27;30.00;39.50
64549;DHT22;49838;51.798;10.954;2022-08-01T07:54:56;30.00;39.40
64549;DHT22;49838;51.798;10.954;2022-08-01T07:57:24;30.20;39.20
64549;DHT22;49838;51.798;10.954;2022-08-01T07:59:52;30.70;39.20
64549;DHT22;49838;51.798;10.954;2022-08-01T08:02:19;31.10;39.10
64549;DHT22;49838;51.798;10.954;2022-08-01T08:04:46;31.30;38.90
64549;DHT22;49838;51.798;10.954;2022-08-01T08:07:13;31.30;38.70
64549;DHT22;49838;51.798;10.954;2022-08-01T08:09:42;31.20;38.70
64549;DHT22;49838;51.798;10.954;2022-08-01T08:12:09;31.00;38.80
64549;DHT22;49838;51.798;10.954;2022-08-01T08:14:37;31.00;38.90
64549;DHT22;49838;51.798;10.954;2022-08-01T08:17:04;30.80;38.80
64549;DHT22;49838;51.798;10.954;2022-08-01T08:19:32;30.70;38.90
64549;DHT22;49838;51.798;10.954;2022-08-01T08:22:02;30.60;38.80
64549;DHT22;49838;51.798;10.954;2022-08-01T08:24:30;30.40;39.00
64549;DHT22;49838;51.798;10.954;2022-08-01T08:27:00;30.20;39.20
64549;DHT22;49838;51.798;10.954;2022-08-01T08:29:28;30.00;39.20
64549;DHT22;49838;51.798;10.954;2022-08-01T08:31:58;29.90;39.40
64549;DHT22;49838;51.798;10.954;2022-08-01T08:34:26;29.70;39.40
64549;DHT22;49838;51.798;10.954;2022-08-01T08:36:55;29.70;39.50
64549;DHT22;49838;51.798;10.954;2022-08-01T08:39:23;29.70;39.50
64549;DHT22;49838;51.798;10.954;2022-08-01T08:41:50;29.60;39.60
64549;DHT22;49838;51.798;10.954;2022-08-01T08:44:19;29.60;39.50
64549;DHT22;49838;51.798;10.954;2022-08-01T08:46:47;29.60;39.60
64549;DHT22;49838;51.798;10.954;2022-08-01T08:49:17;29.60;39.40
64549;DHT22;49838;51.798;10.954;2022-08-01T08:51:47;29.70;39.40
64549;DHT22;49838;51.798;10.954;2022-08-01T08:54:16;29.80;39.50
64549;DHT22;49838;51.798;10.954;2022-08-01T08:56:46;29.90;39.40
64549;DHT22;49838;51.798;10.954;2022-08-01T08:59:14;30.00;39.50
64549;DHT22;49838;51.798;10.954;2022-08-01T09:01:43;30.00;39.40
64549;DHT22;49838;51.798;10.954;2022-08-01T09:04:11;30.10;39.40
64549;DHT22;49838;51.798;10.954;2022-08-01T09:06:38;30.00;39.30
64549;DHT22;49838;51.798;10.954;2022-08-01T09:09:07;29.90;39.20
64549;DHT22;49838;51.798;10.954;2022-08-01T09:11:35;29.90;39.30
64549;DHT22;49838;51.798;10.954;2022-08-01T09:14:04;29.90;39.30
64549;DHT22;49838;51.798;10.954;2022-08-01T09:16:35;30.10;39.20
64549;DHT22;49838;51.798;10.954;2022-08-01T09:19:08;30.30;39.10
64549;DHT22;49838;51.798;10.954;2022-08-01T09:21:38;30.90;39.10
64549;DHT22;49838;51.798;10.954;2022-08-01T09:24:13;31.40;39.10
64549;DHT22;49838;51.798;10.954;2022-08-01T09:26:42;31.80;39.20
64549;DHT22;49838;51.798;10.954;2022-08-01T09:29:17;32.40;39.60
64549;DHT22;49838;51.798;10.954;2022-08-01T09:31:45;32.90;39.80
64549;DHT22;49838;51.798;10.954;2022-08-01T09:34:15;33.30;39.90
64549;DHT22;49838;51.798;10.954;2022-08-01T09:36:43;33.50;39.80
64549;DHT22;49838;51.798;10.954;2022-08-01T09:39:14;33.30;39.00
64549;DHT22;49838;51.798;10.954;2022-08-01T09:41:43;33.00;38.60
64549;DHT22;49838;51.798;10.954;2022-08-01T09:44:10;32.50;38.40
64549;DHT22;49838;51.798;10.954;2022-08-01T09:46:46;32.10;38.40
64549;DHT22;49838;51.798;10.954;2022-08-01T09:49:17;31.70;38.40
64549;DHT22;49838;51.798;10.954;2022-08-01T09:51:54;31.60;38.30
64549;DHT22;49838;51.798;10.954;2022-08-01T09:54:27;31.50;38.10
64549;DHT22;49838;51.798;10.954;2022-08-01T09:57:06;31.50;38.10
64549;DHT22;49838;51.798;10.954;2022-08-01T09:59:35;31.60;37.90
64549;DHT22;49838;51.798;10.954;2022-08-01T10:02:03;31.80;37.90
64549;DHT22;49838;51.798;10.954;2022-08-01T10:04:32;31.70;38.00
64549;DHT22;49838;51.798;10.954;2022-08-01T10:07:05;31.50;38.00
64549;DHT22;49838;51.798;10.954;2022-08-01T10:09:34;31.50;38.10
64549;DHT22;49838;51.798;10.954;2022-08-01T10:12:03;31.70;38.00
64549;DHT22;49838;51.798;10.954;2022-08-01T10:14:31;31.80;37.90
64549;DHT22;49838;51.798;10.954;2022-08-01T10:16:59;31.70;37.90
64549;DHT22;49838;51.798;10.954;2022-08-01T10:19:28;31.70;37.80
64549;DHT22;49838;51.798;10.954;2022-08-01T10:21:57;31.80;37.70
64549;DHT22;49838;51.798;10.954;2022-08-01T10:24:26;31.90;37.60
64549;DHT22;49838;51.798;10.954;2022-08-01T10:26:55;31.70;37.50
64549;DHT22;49838;51.798;10.954;2022-08-01T10:29:28;31.50;37.60
64549;DHT22;49838;51.798;10.954;2022-08-01T10:32:00;31.20;37.60
64549;DHT22;49838;51.798;10.954;2022-08-01T10:34:29;31.10;37.80
64549;DHT22;49838;51.798;10.954;2022-08-01T10:36:58;31.10;37.80
64549;DHT22;49838;51.798;10.954;2022-08-01T10:39:26;31.10;37.80
64549;DHT22;49838;51.798;10.954;2022-08-01T10:41:56;31.20;37.80
64549;DHT22;49838;51.798;10.954;2022-08-01T10:44:23;31.30;37.90
64549;DHT22;49838;51.798;10.954;2022-08-01T10:46:52;31.40;37.90
64549;DHT22;49838;51.798;10.954;2022-08-01T10:49:24;31.50;37.90
64549;DHT22;49838;51.798;10.954;2022-08-01T10:51:54;31.70;37.90
64549;DHT22;49838;51.798;10.954;2022-08-01T10:54:25;31.60;37.80
64549;DHT22;49838;51.798;10.954;2022-08-01T10:56:53;31.50;37.80
64549;DHT22;49838;51.798;10.954;2022-08-01T10:59:22;31.50;37.80
64549;DHT22;49838;51.798;10.954;2022-08-01T11:01:57;31.60;37.80
64549;DHT22;49838;51.798;10.954;2022-08-01T11:04:40;31.60;37.70
64549;DHT22;49838;51.798;10.954;2022-08-01T11:07:13;31.60;37.60
64549;DHT22;49838;51.798;10.954;2022-08-01T11:09:46;31.70;37.60
64549;DHT22;49838;51.798;10.954;2022-08-01T11:12:16;31.70;37.50
64549;DHT22;49838;51.798;10.954;2022-08-01T11:17:50;31.90;37.30
64549;DHT22;49838;51.798;10.954;2022-08-01T11:20:19;32.10;37.30
64549;DHT22;49838;51.798;10.954;2022-08-01T11:26:07;32.20;37.30
64549;DHT22;49838;51.798;10.954;2022-08-01T11:28:36;32.20;37.10
64549;DHT22;49838;51.798;10.954;2022-08-01T11:33:54;32.50;37.10
64549;DHT22;49838;51.798;10.954;2022-08-01T11:36:21;32.70;37.00
64549;DHT22;49838;51.798;10.954;2022-08-01T11:38:49;32.90;36.90
64549;DHT22;49838;51.798;10.954;2022-08-01T11:41:34;32.90;36.70
64549;DHT22;49838;51.798;10.954;2022-08-01T11:44:02;33.00;36.50
64549;DHT22;49838;51.798;10.954;2022-08-01T11:49:29;32.70;36.40
64549;DHT22;49838;51.798;10.954;2022-08-01T11:52:00;32.40;36.70
64549;DHT22;49838;51.798;10.954;2022-08-01T11:54:31;32.30;36.80
64549;DHT22;49838;51.798;10.954;2022-08-01T11:57:01;32.20;36.80
64549;DHT22;49838;51.798;10.954;2022-08-01T11:59:35;32.00;36.70
64549;DHT22;49838;51.798;10.954;2022-08-01T12:02:04;32.00;36.80
64549;DHT22;49838;51.798;10.954;2022-08-01T12:04:49;32.10;36.70
64549;DHT22;49838;51.798;10.954;2022-08-01T12:07:20;32.40;36.80
64549;DHT22;49838;51.798;10.954;2022-08-01T12:09:55;32.40;36.80
64549;DHT22;49838;51.798;10.954;2022-08-01T12:12:25;32.40;36.90
64549;DHT22;49838;51.798;10.954;2022-08-01T12:14:54;32.50;36.90
64549;DHT22;49838;51.798;10.954;2022-08-01T12:17:32;32.50;36.80
64549;DHT22;49838;51.798;10.954;2022-08-01T12:20:02;32.60;36.60
64549;DHT22;49838;51.798;10.954;2022-08-01T12:22:31;32.70;36.40
64549;DHT22;49838;51.798;10.954;2022-08-01T12:25:04;32.70;36.10
64549;DHT22;49838;51.798;10.954;2022-08-01T12:27:34;32.60;36.20
64549;DHT22;49838;51.798;10.954;2022-08-01T12:30:04;32.40;36.20
64549;DHT22;49838;51.798;10.954;2022-08-01T12:32:33;32.20;36.30
64549;DHT22;49838;51.798;10.954;2022-08-01T12:35:03;31.90;36.50
64549;DHT22;49838;51.798;10.954;2022-08-01T12:37:31;31.80;36.60
64549;DHT22;49838;51.798;10.954;2022-08-01T12:40:02;31.80;36.50
64549;DHT22;49838;51.798;10.954;2022-08-01T12:42:38;31.90;36.50
64549;DHT22;49838;51.798;10.954;2022-08-01T12:45:07;32.00;36.50
64549;DHT22;49838;51.798;10.954;2022-08-01T12:47:36;32.00;36.40
64549;DHT22;49838;51.798;10.954;2022-08-01T12:50:05;32.20;36.40
64549;DHT22;49838;51.798;10.954;2022-08-01T12:52:34;32.40;36.30
64549;DHT22;49838;51.798;10.954;2022-08-01T12:55:07;32.50;36.20
64549;DHT22;49838;51.798;10.954;2022-08-01T12:57:40;32.70;36.20
64549;DHT22;49838;51.798;10.954;2022-08-01T13:00:14;32.70;36.00
64549;DHT22;49838;51.798;10.954;2022-08-01T13:02:44;32.70;36.10
64549;DHT22;49838;51.798;10.954;2022-08-01T13:05:12;32.70;36.20
64549;DHT22;49838;51.798;10.954;2022-08-01T13:07:47;32.80;36.20
64549;DHT22;49838;51.798;10.954;2022-08-01T13:10:24;32.80;36.20
64549;DHT22;49838;51.798;10.954;2022-08-01T13:12:56;32.90;36.20
64549;DHT22;49838;51.798;10.954;2022-08-01T13:15:25;32.80;36.20
64549;DHT22;49838;51.798;10.954;2022-08-01T13:17:57;32.60;36.20
64549;DHT22;49838;51.798;10.954;2022-08-01T13:20:27;32.40;36.20
64549;DHT22;49838;51.798;10.954;2022-08-01T13:23:09;32.30;36.30
64549;DHT22;49838;51.798;10.954;2022-08-01T13:25:50;32.20;36.20
64549;DHT22;49838;51.798;10.954;2022-08-01T13:28:21;32.30;36.10
64549;DHT22;49838;51.798;10.954;2022-08-01T13:30:53;32.40;35.90
64549;DHT22;49838;51.798;10.954;2022-08-01T13:33:23;32.50;35.70
64549;DHT22;49838;51.798;10.954;2022-08-01T13:35:51;32.60;35.60
64549;DHT22;49838;51.798;10.954;2022-08-01T13:38:20;32.60;35.50
64549;DHT22;49838;51.798;10.954;2022-08-01T13:41:08;32.70;35.20
64549;DHT22;49838;51.798;10.954;2022-08-01T13:43:37;32.60;35.10
64549;DHT22;49838;51.798;10.954;2022-08-01T13:46:05;32.40;35.30
64549;DHT22;49838;51.798;10.954;2022-08-01T13:48:33;32.30;35.40
64549;DHT22;49838;51.798;10.954;2022-08-01T13:51:00;32.20;35.50
64549;DHT22;49838;51.798;10.954;2022-08-01T13:53:28;32.10;35.50
64549;DHT22;49838;51.798;10.954;2022-08-01T13:55:55;32.10;35.60
64549;DHT22;49838;51.798;10.954;2022-08-01T13:58:22;32.20;35.70
64549;DHT22;49838;51.798;10.954;2022-08-01T14:00:51;32.30;35.60
64549;DHT22;49838;51.798;10.954;2022-08-01T14:03:18;32.30;35.50
64549;DHT22;49838;51.798;10.954;2022-08-01T14:05:46;32.30;35.50
64549;DHT22;49838;51.798;10.954;2022-08-01T14:08:13;32.40;35.60
64549;DHT22;49838;51.798;10.954;2022-08-01T14:10:40;32.40;35.60
64549;DHT22;49838;51.798;10.954;2022-08-01T14:13:08;32.40;35.60
64549;DHT22;49838;51.798;10.954;2022-08-01T14:15:35;32.40;35.50
64549;DHT22;49838;51.798;10.954;2022-08-01T14:18:04;32.40;36.10
64549;DHT22;49838;51.798;10.954;2022-08-01T14:20:32;32.40;35.60
64549;DHT22;49838;51.798;10.954;2022-08-01T14:23:00;32.40;35.50
64549;DHT22;49838;51.798;10.954;2022-08-01T14:25:27;32.50;35.40
64549;DHT22;49838;51.798;10.954;2022-08-01T14:27:55;32.50;35.30
64549;DHT22;49838;51.798;10.954;2022-08-01T14:30:22;32.40;35.30
64549;DHT22;49838;51.798;10.954;2022-08-01T14:32:49;32.40;35.30
64549;DHT22;49838;51.798;10.954;2022-08-01T14:35:18;32.40;35.30
64549;DHT22;49838;51.798;10.954;2022-08-01T14:37:45;32.30;35.30
64549;DHT22;49838;51.798;10.954;2022-08-01T14:40:12;32.40;35.30
64549;DHT22;49838;51.798;10.954;2022-08-01T14:42:39;32.30;35.30
64549;DHT22;49838;51.798;10.954;2022-08-01T14:45:07;32.30;35.30
64549;DHT22;49838;51.798;10.954;2022-08-01T14:47:35;32.20;35.40
64549;DHT22;49838;51.798;10.954;2022-08-01T14:50:03;32.20;35.30
64549;DHT22;49838;51.798;10.954;2022-08-01T14:52:34;32.10;35.30
64549;DHT22;49838;51.798;10.954;2022-08-01T14:55:03;32.10;35.40
64549;DHT22;49838;51.798;10.954;2022-08-01T14:57:31;32.10;35.20
64549;DHT22;49838;51.798;10.954;2022-08-01T14:59:58;32.00;35.20
64549;DHT22;49838;51.798;10.954;2022-08-01T15:02:26;31.90;35.20
64549;DHT22;49838;51.798;10.954;2022-08-01T15:04:53;31.90;35.30
64549;DHT22;49838;51.798;10.954;2022-08-01T15:07:20;31.90;35.30
64549;DHT22;49838;51.798;10.954;2022-08-01T15:09:49;31.90;35.30
64549;DHT22;49838;51.798;10.954;2022-08-01T15:12:16;31.90;35.30
64549;DHT22;49838;51.798;10.954;2022-08-01T15:14:43;31.90;35.30
64549;DHT22;49838;51.798;10.954;2022-08-01T15:17:17;31.90;35.30
64549;DHT22;49838;51.798;10.954;2022-08-01T15:19:46;32.10;35.70
64549;DHT22;49838;51.798;10.954;2022-08-01T15:22:14;32.00;34.90
64549;DHT22;49838;51.798;10.954;2022-08-01T15:24:42;31.90;35.00
64549;DHT22;49838;51.798;10.954;2022-08-01T15:27:11;31.70;35.00
64549;DHT22;49838;51.798;10.954;2022-08-01T15:29:38;31.70;35.20
64549;DHT22;49838;51.798;10.954;2022-08-01T15:32:06;31.50;35.20
64549;DHT22;49838;51.798;10.954;2022-08-01T15:34:35;31.40;35.90
64549;DHT22;49838;51.798;10.954;2022-08-01T15:37:03;31.30;35.40
64549;DHT22;49838;51.798;10.954;2022-08-01T15:39:31;31.20;35.40
64549;DHT22;49838;51.798;10.954;2022-08-01T15:41:59;31.20;35.50
64549;DHT22;49838;51.798;10.954;2022-08-01T15:44:30;31.00;35.30